createdAt,value
2023-03-28T00:00:00.143Z,88.3
2023-03-28T00:05:00.113Z,88.3
2023-03-28T00:10:00.183Z,88
2023-03-28T00:15:00.165Z,88.6
2023-03-28T00:20:00.139Z,89.6
2023-03-28T00:25:00.123Z,90.5
2023-03-28T00:30:00.196Z,91
2023-03-28T00:35:00.166Z,91
2023-03-28T00:40:00.168Z,90.4
2023-03-28T00:45:00.159Z,90.7
2023-03-28T00:50:00.208Z,90.7
2023-03-28T00:55:00.143Z,90.3
2023-03-28T01:00:00.209Z,90.2
2023-03-28T01:05:00.125Z,90
2023-03-28T01:10:00.146Z,89.8
2023-03-28T01:15:00.145Z,89.3
2023-03-28T01:20:00.199Z,89
2023-03-28T01:25:00.122Z,89.1
2023-03-28T01:30:00.174Z,89.3
2023-03-28T01:35:00.115Z,89.7
2023-03-28T01:40:00.139Z,89.7
2023-03-28T01:45:00.115Z,89.9
2023-03-28T01:50:00.138Z,90
2023-03-28T01:55:00.109Z,90
2023-03-28T02:00:00.151Z,89.8
2023-03-28T02:05:00.109Z,89.6
2023-03-28T02:10:00.213Z,89.1
2023-03-28T02:15:00.151Z,88.8
2023-03-28T02:20:00.160Z,88.4
2023-03-28T02:25:00.121Z,89.9
2023-03-28T02:30:00.165Z,90.4
2023-03-28T02:35:00.135Z,90.6
2023-03-28T02:40:00.180Z,90.6
2023-03-28T02:45:00.131Z,90.6
2023-03-28T02:50:00.183Z,90.6
2023-03-28T02:55:00.129Z,90.5
2023-03-28T03:00:00.206Z,90.4
2023-03-28T03:05:00.162Z,90.4
2023-03-28T03:10:00.182Z,90.3
2023-03-28T03:15:00.133Z,90.1
2023-03-28T03:20:00.144Z,90
2023-03-28T03:25:00.133Z,89.7
2023-03-28T03:30:00.228Z,89.8
2023-03-28T03:35:00.146Z,90.1
2023-03-28T03:40:00.141Z,90.3
2023-03-28T03:45:00.118Z,90.5
2023-03-28T03:50:00.191Z,90.7
2023-03-28T03:55:00.126Z,90.9
2023-03-28T04:00:00.171Z,91.2
2023-03-28T04:05:00.150Z,91.5
2023-03-28T04:10:00.171Z,91.8
2023-03-28T04:15:00.112Z,91.9
2023-03-28T04:20:00.155Z,91.8
2023-03-28T04:25:00.137Z,91.7
2023-03-28T04:30:00.175Z,91.5
2023-03-28T04:35:00.128Z,91.7
2023-03-28T04:40:00.109Z,91.7
2023-03-28T04:45:00.125Z,91.6
2023-03-28T04:50:00.165Z,91.5
2023-03-28T04:55:00.141Z,91.3
2023-03-28T05:00:00.122Z,91.1
2023-03-28T05:05:00.147Z,90.8
2023-03-28T05:10:00.133Z,90.4
2023-03-28T05:15:00.083Z,90.2
2023-03-28T05:20:00.149Z,90.1
2023-03-28T05:25:00.129Z,90
2023-03-28T05:30:00.164Z,90.1
2023-03-28T05:35:00.111Z,90.3
2023-03-28T05:40:00.122Z,90.4
2023-03-28T05:45:00.134Z,90.6
2023-03-28T05:50:00.140Z,90.8
2023-03-28T05:55:00.132Z,91.3
2023-03-28T06:00:00.143Z,92.3
2023-03-28T06:05:00.246Z,92.9
2023-03-28T06:10:00.165Z,92.5
2023-03-28T06:15:00.113Z,92.5
2023-03-28T06:20:00.146Z,93.9
2023-03-28T06:25:00.103Z,93.1
2023-03-28T06:30:00.221Z,87.9
2023-03-28T06:35:00.167Z,79
2023-03-28T06:40:00.097Z,72.2
2023-03-28T06:45:00.129Z,68.6
2023-03-28T06:50:00.208Z,66.7
2023-03-28T06:55:00.114Z,66.2
2023-03-28T07:00:00.122Z,64.1
2023-03-28T07:05:00.111Z,63.2
2023-03-28T07:10:00.148Z,60.5
2023-03-28T07:15:00.139Z,61.7
2023-03-28T07:20:00.169Z,60.5
2023-03-28T07:25:00.132Z,54.3
2023-03-28T07:30:00.171Z,46.9
2023-03-28T07:35:00.133Z,44.6
2023-03-28T07:40:00.132Z,43.2
2023-03-28T07:45:00.139Z,40.7
2023-03-28T07:50:00.121Z,38.9
2023-03-28T07:55:00.126Z,37.6
2023-03-28T08:00:00.129Z,34.6
2023-03-28T08:05:00.240Z,34.8
2023-03-28T08:10:00.152Z,32.6
2023-03-28T08:15:00.131Z,33.2
2023-03-28T08:20:00.120Z,33.5
2023-03-28T08:25:00.157Z,32.2
2023-03-28T08:30:00.211Z,33.4
2023-03-28T08:35:00.123Z,29.9
2023-03-28T08:40:00.130Z,29.5
2023-03-28T08:45:00.113Z,30.8
2023-03-28T08:50:00.210Z,29.7
2023-03-28T08:55:00.141Z,29.3
2023-03-28T09:00:00.172Z,28.3
2023-03-28T09:05:12.349Z,28.4
2023-03-28T09:10:00.240Z,28.3
2023-03-28T09:15:00.133Z,29.4
2023-03-28T09:20:00.121Z,27.7
2023-03-28T09:25:00.151Z,28.5
2023-03-28T09:30:00.210Z,28.7
2023-03-28T09:35:00.166Z,29.7
2023-03-28T09:40:00.224Z,29.9
2023-03-28T09:45:00.162Z,29.4
2023-03-28T09:50:09.969Z,30.3
2023-03-28T09:55:00.135Z,29.4
2023-03-28T10:00:00.143Z,30.6
2023-03-28T10:05:00.228Z,30.6
2023-03-28T10:10:00.161Z,29.3
2023-03-28T10:15:00.125Z,30.4
2023-03-28T10:20:00.199Z,31.3
2023-03-28T10:25:00.184Z,32.8
2023-03-28T10:30:00.222Z,32.6
2023-03-28T10:35:00.151Z,31.8
2023-03-28T10:40:00.269Z,33.1
2023-03-28T10:45:00.149Z,31.9
2023-03-28T10:50:00.177Z,31.3
2023-03-28T10:55:00.125Z,29.1
2023-03-28T11:00:00.159Z,27.5
2023-03-28T11:05:00.087Z,27.1
2023-03-28T11:10:00.235Z,27.6
2023-03-28T11:15:00.151Z,29.4
2023-03-28T11:20:00.203Z,30.9
2023-03-28T11:25:00.156Z,30.5
2023-03-28T11:30:00.161Z,30.9
2023-03-28T11:35:00.146Z,32.7
2023-03-28T11:40:00.206Z,33.8
2023-03-28T11:45:00.160Z,33.8
2023-03-28T11:50:00.162Z,33.7
2023-03-28T11:55:00.142Z,33.7
2023-03-28T12:00:00.163Z,32.5
2023-03-28T12:05:00.188Z,31.7
2023-03-28T12:10:00.267Z,31.9
2023-03-28T12:15:00.202Z,32.4
2023-03-28T12:20:00.158Z,34.2
2023-03-28T12:25:00.231Z,35.7
2023-03-28T12:30:00.258Z,36.6
2023-03-28T12:35:00.119Z,37.6
2023-03-28T12:40:00.195Z,39
2023-03-28T12:45:00.181Z,39.7
2023-03-28T12:50:00.113Z,41
2023-03-28T12:55:01.567Z,42.1
2023-03-28T13:00:00.153Z,43.2
2023-03-28T13:05:00.143Z,44.2
2023-03-28T13:10:00.390Z,48.9
2023-03-28T13:15:00.139Z,53.9
2023-03-28T13:20:00.120Z,53.9
2023-03-28T13:25:00.734Z,53.4
2023-03-28T13:30:00.169Z,52.8
2023-03-28T13:35:00.141Z,51.9
2023-03-28T13:40:00.114Z,50.1
2023-03-28T13:45:00.129Z,49
2023-03-28T13:50:00.159Z,46.3
2023-03-28T13:55:00.124Z,48.8
2023-03-28T14:00:00.253Z,50.1
2023-03-28T14:05:00.124Z,50.3
2023-03-28T14:10:00.150Z,50
2023-03-28T14:15:00.104Z,49.1
2023-03-28T14:20:00.163Z,49.6
2023-03-28T14:25:00.121Z,49.7
2023-03-28T14:30:00.156Z,48.7
2023-03-28T14:35:00.134Z,48
2023-03-28T14:40:00.166Z,47.8
2023-03-28T14:45:00.135Z,47.1
2023-03-28T14:50:00.185Z,47
2023-03-28T14:55:00.177Z,47.4
2023-03-28T15:00:00.173Z,47.3
2023-03-28T15:05:00.102Z,46.4
2023-03-28T15:10:00.221Z,45.2
2023-03-28T15:15:00.115Z,44.4
2023-03-28T15:20:00.206Z,43.5
2023-03-28T15:25:00.161Z,43.3
2023-03-28T15:30:00.240Z,43
2023-03-28T15:35:00.119Z,43.5
2023-03-28T15:40:00.179Z,44.4
2023-03-28T15:45:00.107Z,45.3
2023-03-28T15:50:02.319Z,46.3
2023-03-28T15:55:00.149Z,46.9
2023-03-28T16:00:00.152Z,47.5
2023-03-28T16:05:00.157Z,48
2023-03-28T16:10:00.196Z,48
2023-03-28T16:15:00.119Z,47.6
2023-03-28T16:20:00.151Z,47.8
2023-03-28T16:25:00.136Z,48.6
2023-03-28T16:30:00.118Z,49.4
2023-03-28T16:35:00.158Z,49.9
2023-03-28T16:40:02.133Z,50
2023-03-28T16:45:00.164Z,50
2023-03-28T16:50:00.142Z,50.3
2023-03-28T16:55:00.190Z,51.2
2023-03-28T17:00:00.209Z,51.6
2023-03-28T17:05:00.129Z,52.1
2023-03-28T17:10:00.150Z,52.5
2023-03-28T17:15:00.121Z,53
2023-03-28T17:20:00.130Z,53.1
2023-03-28T17:25:00.160Z,53.7
2023-03-28T17:30:00.161Z,54.5
2023-03-28T17:35:00.124Z,55
2023-03-28T17:40:00.172Z,56
2023-03-28T17:45:00.157Z,56.6
2023-03-28T17:50:00.160Z,56.8
2023-03-28T17:55:00.141Z,57.4
2023-03-28T18:00:00.188Z,58
2023-03-28T18:05:00.129Z,58.8
2023-03-28T18:10:00.160Z,59.1
2023-03-28T18:15:01.269Z,59.8
2023-03-28T18:20:00.093Z,60.8
2023-03-28T18:25:00.150Z,61.2
2023-03-28T18:30:00.197Z,61.4
2023-03-28T18:35:00.142Z,62.1
2023-03-28T18:40:00.117Z,62.3
2023-03-28T18:45:00.159Z,62.7
2023-03-28T18:50:00.166Z,63
2023-03-28T18:55:00.178Z,63.6
2023-03-28T19:00:00.163Z,64
2023-03-28T19:05:00.234Z,64.4
2023-03-28T19:10:00.161Z,64.6
2023-03-28T19:15:00.118Z,64.7
2023-03-28T19:20:00.177Z,65.7
2023-03-28T19:25:00.139Z,65.8
2023-03-28T19:30:00.142Z,65.8
2023-03-28T19:35:00.103Z,64.7
2023-03-28T19:40:00.207Z,65.8
2023-03-28T19:45:00.116Z,66.6
2023-03-28T19:50:00.149Z,68.9
2023-03-28T19:55:00.124Z,68
2023-03-28T20:00:00.146Z,66.6
2023-03-28T20:05:00.290Z,66.9
2023-03-28T20:10:00.154Z,66.7
2023-03-28T20:15:00.128Z,67
2023-03-28T20:20:00.120Z,67.7
2023-03-28T20:25:00.140Z,68.3
2023-03-28T20:30:00.155Z,68.3
2023-03-28T20:35:00.139Z,68.4
2023-03-28T20:40:00.235Z,68.7
2023-03-28T20:45:00.097Z,69.1
2023-03-28T20:50:00.185Z,69.3
2023-03-28T20:55:00.168Z,69.6
2023-03-28T21:00:00.190Z,70.3
2023-03-28T21:05:00.191Z,71
2023-03-28T21:10:00.152Z,70.2
2023-03-28T21:15:00.123Z,70.5
2023-03-28T21:20:00.130Z,70.6
2023-03-28T21:25:00.120Z,70.8
2023-03-28T21:35:00.196Z,71
2023-03-28T21:40:00.147Z,70.8
2023-03-28T21:45:00.107Z,70.8
2023-03-28T21:50:00.136Z,71.1
2023-03-28T21:55:00.127Z,71.4
2023-03-28T22:00:00.331Z,71.6
2023-03-28T22:05:00.118Z,71.5
2023-03-28T22:10:00.155Z,71.5
2023-03-28T22:15:00.138Z,71.7
2023-03-28T22:20:00.114Z,71.7
2023-03-28T22:25:00.121Z,71.4
2023-03-28T22:30:00.165Z,71.2
2023-03-28T22:35:00.170Z,70.9
2023-03-28T22:40:00.114Z,71
2023-03-28T22:45:00.176Z,71.1
2023-03-28T22:50:00.120Z,71.2
2023-03-28T22:55:00.124Z,71.3
2023-03-28T23:00:00.110Z,71.5
2023-03-28T23:05:00.204Z,71.6
2023-03-28T23:10:00.121Z,71.7
2023-03-28T23:15:00.133Z,71.9
2023-03-28T23:20:00.174Z,72.1
2023-03-28T23:25:00.118Z,72.3
2023-03-28T23:30:00.126Z,72.5
2023-03-28T23:35:00.121Z,72.7
2023-03-28T23:40:00.115Z,72.9
2023-03-28T23:45:00.107Z,72.5
2023-03-28T23:50:00.101Z,73.3
2023-03-28T23:55:00.129Z,73.6
